Time;durP1;ratioP1;P1;durP2;ratioP2;P2;SDS_P1;SDS_P2;PMS_P1;PMS_P2;Temp;Humidity;BMP_temperature;BMP_pressure;BME280_temperature;BME280_humidity;BME280_pressure;Samples;Min_cycle;Max_cycle;Signal;HPM_P1;HPM_P2
2023/07/17 00:03:53;;;;;;;;;;;;;;;21.36;47.05;99685.69;10327362;28;1079;-72
2023/07/17 00:08:49;;;;;;;;;;;;;;;21.37;47.09;99681.22;10326618;28;818;-71
2023/07/17 00:13:45;;;;;;;;;;;;;;;21.35;47.15;99678.69;10326546;28;1985;-72
2023/07/17 00:18:41;;;;;;;;;;;;;;;21.36;47.21;99675.06;10326108;28;804;-72
2023/07/17 00:23:37;;;;;;;;;;;;;;;21.36;47.16;99664.47;10325632;28;805;-71
2023/07/17 00:28:33;;;;;;;;;;;;;;;21.37;47.16;99658.22;10325584;28;826;-71
2023/07/17 00:33:28;;;;;;;;;;;;;;;21.36;47.35;99664.47;10325595;28;1981;-72
2023/07/17 00:38:24;;;;;;;;;;;;;;;21.37;47.17;99660.00;10325399;28;842;-72
2023/07/17 00:43:20;;;;;;;;;;;;;;;21.37;47.35;99654.72;10325885;28;793;-72
2023/07/17 00:48:16;;;;;;;;;;;;;;;21.38;47.35;99664.44;10327724;28;889;-71
2023/07/17 00:53:12;;;;;;;;;;;;;;;21.36;47.36;99668.94;10333430;28;1902;-72
2023/07/17 00:58:08;;;;;;;;;;;;;;;21.37;47.31;99692.69;10333981;28;833;-71
2023/07/17 01:03:04;;;;;;;;;;;;;;;21.36;47.36;99704.25;10332419;28;1070;-72
2023/07/17 01:07:59;;;;;;;;;;;;;;;21.36;47.32;99711.34;10333526;28;790;-72
2023/07/17 01:12:55;;;;;;;;;;;;;;;21.36;47.32;99719.31;10332610;28;1905;-72
2023/07/17 01:17:51;;;;;;;;;;;;;;;21.35;47.69;99726.41;10332542;28;782;-71
2023/07/17 01:22:47;;;;;;;;;;;;;;;21.36;47.58;99732.56;10332891;28;904;-72
2023/07/17 01:27:43;;;;;;;;;;;;;;;21.35;47.37;99723.75;10332679;28;903;-72
2023/07/17 01:32:39;;;;;;;;;;;;;;;21.35;47.42;99721.09;10332511;28;1995;-72
2023/07/17 01:37:35;;;;;;;;;;;;;;;21.35;47.57;99742.31;10332320;28;892;-72
2023/07/17 01:42:31;;;;;;;;;;;;;;;21.35;47.49;99739.66;10331515;28;874;-72
2023/07/17 01:47:27;;;;;;;;;;;;;;;21.34;47.71;99735.28;10331380;28;862;-72
2023/07/17 01:52:22;;;;;;;;;;;;;;;21.35;47.56;99742.31;10331145;28;1967;-72
2023/07/17 01:57:18;;;;;;;;;;;;;;;21.34;47.70;99740.59;10330563;28;1048;-72
2023/07/17 02:02:14;;;;;;;;;;;;;;;21.35;47.62;99752.03;10330101;28;817;-72
2023/07/17 02:07:10;;;;;;;;;;;;;;;21.34;47.71;99753.84;10330668;28;847;-72
2023/07/17 02:12:06;;;;;;;;;;;;;;;21.34;47.72;99772.41;10330328;28;1910;-72
2023/07/17 02:17:02;;;;;;;;;;;;;;;21.34;47.77;99768.91;10330878;28;875;-72
2023/07/17 02:21:58;;;;;;;;;;;;;;;21.33;47.77;99762.75;10330089;28;817;-72
2023/07/17 02:26:54;;;;;;;;;;;;;;;21.33;47.82;99781.31;10330587;28;1207;-72
2023/07/17 02:31:49;;;;;;;;;;;;;;;21.32;47.65;99779.59;10329461;28;1985;-71
2023/07/17 02:36:45;;;;;;;;;;;;;;;21.32;47.82;99790.19;10329527;28;810;-72
2023/07/17 02:41:41;;;;;;;;;;;;;;;21.32;47.64;99784.88;10329169;28;874;-72
2023/07/17 02:46:37;;;;;;;;;;;;;;;21.32;47.66;99773.44;10328688;28;1039;-72
2023/07/17 02:51:33;;;;;;;;;;;;;;;21.31;47.77;99785.84;10329952;28;1906;-72
2023/07/17 02:56:29;;;;;;;;;;;;;;;21.30;47.69;99781.50;10328737;28;778;-72
2023/07/17 03:01:25;;;;;;;;;;;;;;;21.32;47.86;99784.03;10329162;28;1033;-71
2023/07/17 03:06:21;;;;;;;;;;;;;;;21.30;47.74;99759.41;10329206;28;758;-72
2023/07/17 03:11:17;;;;;;;;;;;;;;;21.30;47.84;99776.19;10327246;28;1961;-72
2023/07/17 03:16:13;;;;;;;;;;;;;;;21.31;47.77;99785.00;10327939;28;905;-71
2023/07/17 03:21:09;;;;;;;;;;;;;;;21.29;47.75;99779.78;10328324;28;750;-72
2023/07/17 03:26:05;;;;;;;;;;;;;;;21.28;47.81;99750.72;10327984;28;839;-72
2023/07/17 03:31:00;;;;;;;;;;;;;;;21.29;47.69;99755.06;10327483;28;1993;-72
2023/07/17 03:35:56;;;;;;;;;;;;;;;21.28;47.96;99767.47;10327236;28;999;-71
2023/07/17 03:40:52;;;;;;;;;;;;;;;21.29;47.87;99770.97;10328131;28;1031;-72
2023/07/17 03:45:48;;;;;;;;;;;;;;;21.29;47.85;99781.56;10326792;28;767;-72
2023/07/17 03:50:44;;;;;;;;;;;;;;;21.29;47.87;99781.56;10326505;28;1909;-72
2023/07/17 03:55:40;;;;;;;;;;;;;;;21.29;48.05;99787.72;10326159;28;1049;-71
2023/07/17 04:00:36;;;;;;;;;;;;;;;21.29;48.18;99789.53;10322715;28;900;-70
2023/07/17 04:05:32;;;;;;;;;;;;;;;21.28;47.82;99799.28;10326339;28;885;-71
2023/07/17 04:10:28;;;;;;;;;;;;;;;21.28;48.30;99798.44;10325265;28;1957;-70
2023/07/17 04:15:25;;;;;;;;;;;;;;;21.29;48.18;99792.19;10325846;28;803;-70
2023/07/17 04:20:21;;;;;;;;;;;;;;;21.28;48.19;99787.84;10325447;28;837;-70
2023/07/17 04:25:17;;;;;;;;;;;;;;;21.26;48.29;99797.66;10325898;28;869;-70
2023/07/17 04:30:12;;;;;;;;;;;;;;;21.26;48.35;99795.00;10325110;28;1411;-71
2023/07/17 04:35:09;;;;;;;;;;;;;;;21.27;48.27;99807.31;10325380;28;1969;-71
2023/07/17 04:40:05;;;;;;;;;;;;;;;21.25;48.46;99820.66;10324652;28;936;-71
2023/07/17 04:45:01;;;;;;;;;;;;;;;21.26;48.48;99826.81;10325261;28;785;-70
2023/07/17 04:49:57;;;;;;;;;;;;;;;21.26;48.50;99826.81;10325562;28;788;-71
2023/07/17 04:54:53;;;;;;;;;;;;;;;21.24;48.41;99834.84;10325461;28;1886;-71
2023/07/17 04:59:49;;;;;;;;;;;;;;;21.24;48.63;99835.69;10325627;28;890;-70
2023/07/17 05:04:45;;;;;;;;;;;;;;;21.22;48.59;99837.59;10324354;28;791;-71
2023/07/17 05:09:41;;;;;;;;;;;;;;;21.24;48.54;99842.81;10324794;28;782;-71
2023/07/17 05:14:37;;;;;;;;;;;;;;;21.22;48.61;99842.91;10325175;28;1902;-71
2023/07/17 05:19:33;;;;;;;;;;;;;;;21.22;48.58;99847.31;10325822;28;931;-71
2023/07/17 05:24:28;;;;;;;;;;;;;;;21.22;48.62;99855.28;10324184;28;917;-72
2023/07/17 05:29:24;;;;;;;;;;;;;;;21.21;48.83;99864.19;10324321;28;803;-71
2023/07/17 05:34:20;;;;;;;;;;;;;;;21.21;48.73;99861.53;10326709;28;1973;-72
2023/07/17 05:39:16;;;;;;;;;;;;;;;21.20;48.66;99863.34;10331637;28;917;-71
2023/07/17 05:44:12;;;;;;;;;;;;;;;21.19;48.79;99868.72;10331487;28;786;-71
2023/07/17 05:49:08;;;;;;;;;;;;;;;21.18;48.88;99880.25;10331882;28;847;-64
2023/07/17 05:54:04;;;;;;;;;;;;;;;21.16;48.81;99885.63;10331118;28;1890;-65
2023/07/17 05:59:00;;;;;;;;;;;;;;;21.16;48.95;99882.13;10331058;28;802;-65
2023/07/17 06:03:56;;;;;;;;;;;;;;;21.16;48.86;99884.78;10330143;28;1060;-65
2023/07/17 06:08:52;;;;;;;;;;;;;;;21.14;48.97;99882.25;10330631;28;853;-66
2023/07/17 06:13:47;;;;;;;;;;;;;;;21.15;48.94;99894.53;10330944;28;1902;-65
2023/07/17 06:18:43;;;;;;;;;;;;;;;21.16;49.05;99900.69;10330219;28;867;-65
2023/07/17 06:23:39;;;;;;;;;;;;;;;21.15;49.01;99909.59;10330649;28;806;-66
2023/07/17 06:28:35;;;;;;;;;;;;;;;21.13;48.96;99904.38;10330510;28;829;-66
2023/07/17 06:33:32;;;;;;;;;;;;;;;21.13;49.13;99909.66;10329971;28;1906;-66
2023/07/17 06:38:27;;;;;;;;;;;;;;;21.12;49.16;99907.97;10329564;28;857;-66
2023/07/17 06:43:23;;;;;;;;;;;;;;;21.12;48.95;99913.28;10329058;28;1102;-66
2023/07/17 06:48:19;;;;;;;;;;;;;;;21.12;48.91;99915.06;10328966;28;784;-66
2023/07/17 06:53:16;;;;;;;;;;;;;;;21.02;48.71;99915.56;10328903;28;1898;-66
2023/07/17 06:58:12;;;;;;;;;;;;;;;21.02;48.71;99923.50;10328464;28;947;-66
2023/07/17 07:03:08;;;;;;;;;;;;;;;21.04;48.96;99912.84;10329150;28;872;-66
2023/07/17 07:08:03;;;;;;;;;;;;;;;21.06;48.85;99931.28;10327820;28;873;-66
2023/07/17 07:12:59;;;;;;;;;;;;;;;21.07;49.09;99931.22;10328360;28;1890;-66
2023/07/17 07:17:55;;;;;;;;;;;;;;;21.06;49.17;99925.97;10327311;28;881;-66
2023/07/17 07:22:51;;;;;;;;;;;;;;;21.06;49.24;99925.97;10328297;28;794;-66
2023/07/17 07:27:47;;;;;;;;;;;;;;;21.04;48.96;99934.03;10328787;28;792;-65
2023/07/17 07:32:43;;;;;;;;;;;;;;;20.99;48.89;99933.44;10327662;28;1910;-66
2023/07/17 07:37:39;;;;;;;;;;;;;;;21.01;48.91;99944.78;10327112;28;806;-66
2023/07/17 07:42:35;;;;;;;;;;;;;;;21.01;49.02;99934.19;10326867;28;868;-66
2023/07/17 07:47:30;;;;;;;;;;;;;;;20.99;48.73;99941.38;10327384;28;958;-66
2023/07/17 07:52:26;;;;;;;;;;;;;;;20.94;48.36;99954.88;10325847;28;1957;-66
2023/07/17 07:57:22;;;;;;;;;;;;;;;20.90;48.16;99948.00;10326027;28;882;-66
2023/07/17 08:02:18;;;;;;;;;;;;;;;20.90;48.23;99955.94;10325631;28;1270;-66
2023/07/17 08:07:14;;;;;;;;;;;;;;;20.91;48.28;99951.53;10326300;28;816;-66
2023/07/17 08:12:10;;;;;;;;;;;;;;;20.89;48.18;99950.75;10326475;28;1977;-66
2023/07/17 08:17:06;;;;;;;;;;;;;;;20.89;48.25;99948.94;10325285;28;1196;-66
2023/07/17 08:22:02;;;;;;;;;;;;;;;20.89;48.21;99945.44;10325475;28;1023;-66
2023/07/17 08:26:58;;;;;;;;;;;;;;;20.85;48.14;99944.75;10324569;28;875;-66
2023/07/17 08:31:53;;;;;;;;;;;;;;;20.86;48.08;99945.63;10325926;28;1919;-65
2023/07/17 08:36:49;;;;;;;;;;;;;;;20.83;47.95;99951.06;10325615;28;859;-66
2023/07/17 08:41:46;;;;;;;;;;;;;;;20.86;48.05;99951.78;10325094;28;726;-66
2023/07/17 08:46:42;;;;;;;;;;;;;;;20.89;48.24;99948.09;10325249;28;874;-66
2023/07/17 08:51:38;;;;;;;;;;;;;;;21.00;48.48;99956.31;10325014;28;1894;-66
2023/07/17 08:56:34;;;;;;;;;;;;;;;21.09;48.24;99952.31;10323680;28;1903;-66
2023/07/17 09:01:30;;;;;;;;;;;;;;;21.12;48.31;99954.81;10321815;28;1080;-67
2023/07/17 09:06:26;;;;;;;;;;;;;;;21.14;48.41;99956.47;10324783;28;786;-66
2023/07/17 09:11:22;;;;;;;;;;;;;;;21.12;48.42;99958.34;10330948;28;1962;-67
2023/07/17 09:16:18;;;;;;;;;;;;;;;21.15;48.26;99957.31;10332614;28;785;-67
2023/07/17 09:21:14;;;;;;;;;;;;;;;21.14;48.36;99958.22;10332330;28;871;-66
2023/07/17 09:26:10;;;;;;;;;;;;;;;21.14;48.33;99956.47;10332539;28;966;-66
2023/07/17 09:31:05;;;;;;;;;;;;;;;21.14;48.43;99966.19;10332052;28;1902;-66
2023/07/17 09:36:01;;;;;;;;;;;;;;;21.17;48.53;99956.28;10332246;28;758;-66
2023/07/17 09:40:57;;;;;;;;;;;;;;;21.18;48.41;99971.25;10331078;28;814;-66
2023/07/17 09:45:53;;;;;;;;;;;;;;;21.20;48.41;99965.88;10332020;28;849;-65
2023/07/17 09:50:49;;;;;;;;;;;;;;;21.14;48.57;99974.13;10331373;28;1936;-66
2023/07/17 09:55:45;;;;;;;;;;;;;;;21.13;48.70;99975.94;10331129;28;790;-66
2023/07/17 10:00:41;;;;;;;;;;;;;;;21.14;48.55;99982.97;10330429;28;876;-66
2023/07/17 10:05:37;;;;;;;;;;;;;;;21.17;48.65;99972.19;10330829;28;896;-66
2023/07/17 10:10:33;;;;;;;;;;;;;;;21.21;48.50;99978.19;10331865;28;795;-66
2023/07/17 10:15:29;;;;;;;;;;;;;;;21.14;48.69;99982.09;10330125;28;1898;-66
2023/07/17 10:20:24;;;;;;;;;;;;;;;21.13;48.74;99989.19;10329697;28;928;-66
2023/07/17 10:25:20;;;;;;;;;;;;;;;21.17;48.68;99988.09;10329753;28;806;-67
2023/07/17 10:30:16;;;;;;;;;;;;;;;21.15;48.57;99987.31;10329246;28;1206;-66
2023/07/17 10:35:12;;;;;;;;;;;;;;;21.16;48.60;99989.00;10329762;28;1914;-66
2023/07/17 10:40:08;;;;;;;;;;;;;;;21.18;48.50;99989.81;10328946;28;855;-66
2023/07/17 10:45:04;;;;;;;;;;;;;;;21.13;48.56;99989.19;10329974;28;979;-66
2023/07/17 10:50:00;;;;;;;;;;;;;;;21.15;48.66;99983.81;10329205;28;806;-66
2023/07/17 10:54:55;;;;;;;;;;;;;;;21.21;48.29;99978.19;10328963;28;1897;-66
2023/07/17 10:59:51;;;;;;;;;;;;;;;21.24;48.40;99981.50;10327928;28;920;-69
2023/07/17 11:04:47;;;;;;;;;;;;;;;21.16;48.26;99982.88;10328631;28;860;-69
2023/07/17 11:09:43;;;;;;;;;;;;;;;21.16;48.47;99989.00;10328910;28;953;-69
2023/07/17 11:14:39;;;;;;;;;;;;;;;21.22;48.19;99988.72;10327709;28;1894;-69
2023/07/17 11:19:35;;;;;;;;;;;;;;;21.16;48.25;99989.00;10327958;28;878;-68
2023/07/17 11:24:31;;;;;;;;;;;;;;;21.15;48.29;99986.47;10327786;28;802;-68
2023/07/17 11:29:27;;;;;;;;;;;;;;;21.17;48.08;100001.34;10327481;28;952;-65
2023/07/17 11:34:22;;;;;;;;;;;;;;;21.15;48.23;99992.63;10325761;28;1973;-65
2023/07/17 11:39:18;;;;;;;;;;;;;;;21.15;48.31;99992.63;10327132;28;1117;-66
2023/07/17 11:44:14;;;;;;;;;;;;;;;21.17;48.46;100001.34;10326358;28;1124;-66
2023/07/17 11:49:10;;;;;;;;;;;;;;;21.25;48.36;99993.00;10326670;28;946;-66
2023/07/17 11:54:06;;;;;;;;;;;;;;;21.20;48.65;99993.22;10326514;28;1898;-66
2023/07/17 11:59:02;;;;;;;;;;;;;;;21.20;48.54;99992.38;10327236;28;830;-66
2023/07/17 12:03:58;;;;;;;;;;;;;;;21.19;48.77;99999.44;10325672;28;1092;-66
2023/07/17 12:08:54;;;;;;;;;;;;;;;21.26;48.78;99992.03;10325396;28;1080;-66
2023/07/17 12:13:49;;;;;;;;;;;;;;;21.35;48.61;99982.72;10325303;28;1955;-65
2023/07/17 12:18:45;;;;;;;;;;;;;;;21.31;48.68;99986.50;10325910;28;881;-65
2023/07/17 12:23:41;;;;;;;;;;;;;;;21.25;49.04;99990.34;10326416;28;818;-65
2023/07/17 12:28:37;;;;;;;;;;;;;;;21.34;48.74;99984.53;10326316;28;848;-65
2023/07/17 12:33:33;;;;;;;;;;;;;;;21.36;48.64;99972.03;10324823;28;1918;-65
2023/07/17 12:38:29;;;;;;;;;;;;;;;21.37;48.99;99986.16;10325947;28;947;-66
2023/07/17 12:43:25;;;;;;;;;;;;;;;21.35;48.81;99991.56;10325129;28;940;-66
2023/07/17 12:48:20;;;;;;;;;;;;;;;21.34;49.07;99976.56;10324663;28;1019;-65
2023/07/17 12:53:16;;;;;;;;;;;;;;;21.41;48.73;99979.78;10325720;28;1955;-66
2023/07/17 12:58:12;;;;;;;;;;;;;;;21.37;49.08;99971.09;10324961;28;893;-65
2023/07/17 13:03:08;;;;;;;;;;;;;;;21.37;49.10;99973.75;10324010;28;959;-66
2023/07/17 13:08:04;;;;;;;;;;;;;;;21.39;48.89;99965.75;10324690;28;862;-66
2023/07/17 13:13:00;;;;;;;;;;;;;;;21.38;49.00;99969.34;10324452;28;1893;-66
2023/07/17 13:17:56;;;;;;;;;;;;;;;21.38;48.82;99958.75;10324913;28;868;-65
2023/07/17 13:22:52;;;;;;;;;;;;;;;21.49;48.75;99956.34;10324492;28;932;-66
2023/07/17 13:27:47;;;;;;;;;;;;;;;21.43;48.88;99961.97;10324293;28;868;-66
2023/07/17 13:32:43;;;;;;;;;;;;;;;21.42;49.03;99963.78;10324486;28;1918;-66
2023/07/17 13:37:39;;;;;;;;;;;;;;;21.42;48.88;99963.78;10321491;28;1093;-66
2023/07/17 13:42:35;;;;;;;;;;;;;;;21.46;48.81;99953.88;10323351;28;798;-66
2023/07/17 13:47:31;;;;;;;;;;;;;;;21.46;48.77;99953.88;10323426;28;972;-66
2023/07/17 13:52:27;;;;;;;;;;;;;;;21.47;48.86;99955.56;10323094;28;1951;-66
2023/07/17 13:57:23;;;;;;;;;;;;;;;21.54;48.68;99950.81;10327678;28;791;-67
2023/07/17 14:02:19;;;;;;;;;;;;;;;21.57;48.69;99948.81;10330703;28;946;-66
2023/07/17 14:07:14;;;;;;;;;;;;;;;21.48;49.08;99946.66;10329980;28;825;-68
2023/07/17 14:12:10;;;;;;;;;;;;;;;21.63;48.59;99942.31;10330917;28;1903;-66
2023/07/17 14:17:06;;;;;;;;;;;;;;;21.57;48.89;99943.50;10331260;28;909;-66
2023/07/17 14:22:02;;;;;;;;;;;;;;;21.71;48.59;99940.06;10330007;28;863;-66
2023/07/17 14:26:58;;;;;;;;;;;;;;;21.66;48.83;99937.69;10311167;28;1875;-66
2023/07/17 14:31:54;;;;;;;;;;;;;;;21.67;48.81;99939.41;10315695;28;1917;-66
2023/07/17 14:36:50;;;;;;;;;;;;;;;21.58;48.87;99933.75;10297219;28;967;-64
2023/07/17 14:41:46;;;;;;;;;;;;;;;21.58;48.93;99934.59;10288755;28;846;-65
2023/07/17 14:46:43;;;;;;;;;;;;;;;21.60;49.02;99929.22;10288812;28;842;-66
2023/07/17 14:51:39;;;;;;;;;;;;;;;21.57;48.96;99932.06;10288679;28;1937;-66
2023/07/17 14:56:35;;;;;;;;;;;;;;;21.51;49.07;99927.97;10288232;28;877;-66
2023/07/17 15:01:31;;;;;;;;;;;;;;;21.49;49.27;99928.97;10288580;28;1069;-66
2023/07/17 15:06:27;;;;;;;;;;;;;;;21.47;49.09;99929.06;10288118;28;961;-64
2023/07/17 15:11:24;;;;;;;;;;;;;;;21.48;49.02;99928.09;10286685;28;1956;-66
2023/07/17 15:16:20;;;;;;;;;;;;;;;21.69;48.56;99917.22;10287362;28;892;-66
2023/07/17 15:21:16;;;;;;;;;;;;;;;21.70;48.58;99925.13;10287268;28;787;-65
2023/07/17 15:26:12;;;;;;;;;;;;;;;21.51;49.04;99930.59;10287107;28;916;-66
2023/07/17 15:31:11;;;;;;;;;;;;;;;21.44;49.15;99939.84;10287539;28;1973;-66
2023/07/17 15:36:07;;;;;;;;;;;;;;;21.40;49.23;99939.13;10287523;28;941;-66
2023/07/17 15:41:03;;;;;;;;;;;;;;;21.37;49.32;99933.97;10287112;28;869;-66
2023/07/17 15:45:59;;;;;;;;;;;;;;;21.36;49.28;99952.63;10285379;28;846;-66
2023/07/17 15:50:55;;;;;;;;;;;;;;;21.36;49.25;99969.41;10286621;28;2028;-66
2023/07/17 15:55:51;;;;;;;;;;;;;;;21.34;49.21;99997.78;10285989;28;808;-66
2023/07/17 16:00:47;;;;;;;;;;;;;;;21.35;49.31;100049.00;10285718;28;849;-66
2023/07/17 16:05:42;;;;;;;;;;;;;;;21.34;49.30;100069.38;10285320;28;859;-66
2023/07/17 16:10:38;;;;;;;;;;;;;;;21.34;49.31;100087.09;10285503;28;872;-65
2023/07/17 16:15:34;;;;;;;;;;;;;;;21.33;49.22;100093.34;10284909;28;1943;-65
2023/07/17 16:20:30;;;;;;;;;;;;;;;21.32;49.50;100099.56;10284782;28;768;-66
2023/07/17 16:25:26;;;;;;;;;;;;;;;21.30;49.38;100096.13;10285117;28;887;-66
2023/07/17 16:30:22;;;;;;;;;;;;;;;21.30;49.47;100093.47;10285067;28;1568;-66
2023/07/17 16:35:18;;;;;;;;;;;;;;;21.29;49.40;100084.66;10284658;28;1965;-65
2023/07/17 16:40:15;;;;;;;;;;;;;;;21.29;49.50;100105.03;10285943;28;841;-66
2023/07/17 16:45:11;;;;;;;;;;;;;;;21.28;49.58;100113.94;10284583;28;1452;-65
2023/07/17 16:50:07;;;;;;;;;;;;;;;21.29;49.65;100118.28;10285041;28;790;-65
2023/07/17 16:55:03;;;;;;;;;;;;;;;21.26;49.73;100121.94;10285082;28;1890;-66
2023/07/17 16:59:59;;;;;;;;;;;;;;;21.28;49.73;100137.78;10284882;28;841;-66
2023/07/17 17:04:55;;;;;;;;;;;;;;;21.28;49.87;100148.41;10284147;28;782;-66
2023/07/17 17:09:51;;;;;;;;;;;;;;;21.27;49.87;100165.22;10284061;28;861;-66
2023/07/17 17:14:47;;;;;;;;;;;;;;;21.27;49.75;100197.03;10283937;28;1964;-65
2023/07/17 17:19:43;;;;;;;;;;;;;;;21.27;49.87;100210.28;10284459;28;950;-65
2023/07/17 17:24:38;;;;;;;;;;;;;;;21.26;49.94;100213.91;10284492;28;901;-66
2023/07/17 17:29:35;;;;;;;;;;;;;;;21.24;49.83;100159.13;10283111;28;1215;-64
2023/07/17 17:34:31;;;;;;;;;;;;;;;21.24;49.94;100143.22;10291167;28;1914;-64
2023/07/17 17:39:27;;;;;;;;;;;;;;;21.24;49.68;100127.31;10291152;28;858;-63
2023/07/17 17:44:22;;;;;;;;;;;;;;;21.27;49.98;100131.59;10290492;28;992;-64
2023/07/17 17:49:18;;;;;;;;;;;;;;;21.30;50.15;100127.94;10290289;28;818;-66
2023/07/17 17:54:14;;;;;;;;;;;;;;;21.28;50.10;100117.44;10290623;28;1932;-66
2023/07/17 17:59:10;;;;;;;;;;;;;;;21.27;50.18;100117.50;10290580;28;782;-66
2023/07/17 18:04:06;;;;;;;;;;;;;;;21.26;50.11;100116.66;10291087;28;1073;-66
2023/07/17 18:09:02;;;;;;;;;;;;;;;21.26;50.12;100118.44;10290129;28;795;-66
2023/07/17 18:13:58;;;;;;;;;;;;;;;21.25;50.21;100122.91;10289942;28;1957;-66
2023/07/17 18:18:56;;;;;;;;;;;;;;;21.26;50.19;100134.34;10290331;28;774;-70
2023/07/17 18:23:52;;;;;;;;;;;;;;;21.25;50.25;100136.16;10289573;28;972;-66
2023/07/17 18:28:47;;;;;;;;;;;;;;;21.26;50.19;100139.66;10288785;28;813;-66
2023/07/17 18:33:43;;;;;;;;;;;;;;;21.27;50.40;100144.00;10288929;28;1906;-66
2023/07/17 18:38:39;;;;;;;;;;;;;;;21.28;50.57;100148.41;10288304;28;997;-66
2023/07/17 18:43:35;;;;;;;;;;;;;;;21.28;50.44;100149.25;10288943;28;777;-66
2023/07/17 18:48:31;;;;;;;;;;;;;;;21.29;50.61;100155.41;10289314;28;942;-66
2023/07/17 18:53:27;;;;;;;;;;;;;;;21.30;50.53;100154.44;10288329;28;1890;-66
2023/07/17 18:58:23;;;;;;;;;;;;;;;21.30;50.65;100154.44;10289087;28;818;-65
2023/07/17 19:03:19;;;;;;;;;;;;;;;21.30;50.92;100158.00;10287866;28;969;-65
2023/07/17 19:08:15;;;;;;;;;;;;;;;21.30;50.76;100162.41;10288419;28;778;-65
2023/07/17 19:13:12;;;;;;;;;;;;;;;21.29;50.51;100163.34;10288087;28;1890;-66
2023/07/17 19:18:08;;;;;;;;;;;;;;;21.27;50.44;100162.56;10288060;28;850;-66
2023/07/17 19:23:04;;;;;;;;;;;;;;;21.27;50.52;100167.88;10287802;28;782;-66
2023/07/17 19:28:00;;;;;;;;;;;;;;;21.26;50.52;100160.88;10288045;28;863;-66
2023/07/17 19:32:56;;;;;;;;;;;;;;;21.25;50.35;100170.63;10287023;28;1975;-66
2023/07/17 19:37:52;;;;;;;;;;;;;;;21.25;50.34;100173.28;10286835;28;972;-66
2023/07/17 19:42:48;;;;;;;;;;;;;;;21.26;50.50;100187.38;10286814;28;783;-66
2023/07/17 19:47:44;;;;;;;;;;;;;;;21.24;50.58;100188.28;10286294;28;786;-66
2023/07/17 19:52:40;;;;;;;;;;;;;;;21.24;50.24;100195.41;10285882;28;1893;-66
2023/07/17 19:57:39;;;;;;;;;;;;;;;21.22;50.35;100192.84;10286540;28;838;-66
2023/07/17 20:02:34;;;;;;;;;;;;;;;21.21;50.28;100212.31;10303342;28;1102;-66
2023/07/17 20:07:30;;;;;;;;;;;;;;;21.23;50.43;100222.84;10326294;28;836;-66
2023/07/17 20:12:27;;;;;;;;;;;;;;;21.22;50.30;100223.78;10325519;28;1894;-66
2023/07/17 20:17:25;;;;;;;;;;;;;;;21.21;50.31;100222.94;10326153;28;943;-66
2023/07/17 20:22:21;;;;;;;;;;;;;;;21.21;50.40;100230.88;10325888;28;851;-66
2023/07/17 20:27:16;;;;;;;;;;;;;;;21.21;50.43;100233.53;10325682;28;936;-66
2023/07/17 20:32:12;;;;;;;;;;;;;;;21.22;50.30;100234.38;10325960;28;1913;-66
2023/07/17 20:37:08;;;;;;;;;;;;;;;21.20;50.38;100236.28;10324945;28;953;-66
2023/07/17 20:42:04;;;;;;;;;;;;;;;21.19;50.38;100232.75;10325613;28;960;-66
2023/07/17 20:47:00;;;;;;;;;;;;;;;21.19;50.56;100240.69;10325963;28;951;-66
2023/07/17 20:51:56;;;;;;;;;;;;;;;21.18;50.42;100244.28;10325166;28;1897;-66
2023/07/17 20:56:52;;;;;;;;;;;;;;;21.19;50.45;100237.19;10324818;28;905;-66
2023/07/17 21:01:48;;;;;;;;;;;;;;;21.18;50.40;100246.94;10325080;28;911;-66
2023/07/17 21:06:44;;;;;;;;;;;;;;;21.18;50.44;100254.91;10330643;28;885;-66
2023/07/17 21:11:44;;;;;;;;;;;;;;;21.16;50.53;100248.81;10333532;28;1963;-66
2023/07/17 21:16:39;;;;;;;;;;;;;;;21.17;50.40;100263.78;10333943;28;975;-66
2023/07/17 21:21:35;;;;;;;;;;;;;;;21.15;50.46;100263.00;10332708;28;781;-65
2023/07/17 21:26:31;;;;;;;;;;;;;;;21.16;50.42;100261.19;10332364;28;899;-66
2023/07/17 21:31:27;;;;;;;;;;;;;;;21.14;50.65;100261.31;10332272;28;1909;-66
2023/07/17 21:36:23;;;;;;;;;;;;;;;21.15;50.55;100264.81;10331466;28;1071;-66
2023/07/17 21:41:19;;;;;;;;;;;;;;;21.15;50.40;100270.09;10331682;28;794;-66
2023/07/17 21:46:15;;;;;;;;;;;;;;;21.13;50.50;100271.97;10331810;28;837;-65
2023/07/17 21:51:11;;;;;;;;;;;;;;;21.10;50.38;100267.66;10331555;28;1960;-66
2023/07/17 21:56:08;;;;;;;;;;;;;;;21.10;50.42;100277.41;10331467;28;774;-67
2023/07/17 22:01:03;;;;;;;;;;;;;;;21.11;50.37;100279.13;10331350;28;899;-66
2023/07/17 22:06:00;;;;;;;;;;;;;;;21.10;50.29;100277.41;10331620;28;818;-67
2023/07/17 22:10:56;;;;;;;;;;;;;;;21.09;50.69;100284.53;10330891;28;895;-70
2023/07/17 22:15:52;;;;;;;;;;;;;;;21.09;50.64;100276.56;10329146;28;1886;-70
2023/07/17 22:20:48;;;;;;;;;;;;;;;21.10;50.69;100274.78;10330794;28;845;-71
2023/07/17 22:25:44;;;;;;;;;;;;;;;21.08;50.45;100274.84;10330240;28;857;-70
2023/07/17 22:30:40;;;;;;;;;;;;;;;21.09;50.53;100280.97;10330712;28;1411;-70
2023/07/17 22:35:35;;;;;;;;;;;;;;;21.09;50.51;100273.91;10330541;28;1975;-70
2023/07/17 22:40:32;;;;;;;;;;;;;;;21.09;50.64;100283.63;10329486;28;842;-70
2023/07/17 22:45:28;;;;;;;;;;;;;;;21.08;50.50;100276.63;10329464;28;911;-70
2023/07/17 22:50:24;;;;;;;;;;;;;;;21.06;50.60;100287.28;10328706;28;893;-70
2023/07/17 22:55:20;;;;;;;;;;;;;;;21.06;50.64;100287.28;10329252;28;1894;-70
2023/07/17 23:00:16;;;;;;;;;;;;;;;21.06;50.72;100292.59;10328790;28;825;-70
2023/07/17 23:05:12;;;;;;;;;;;;;;;21.06;50.52;100302.34;10328585;28;899;-70
2023/07/17 23:10:10;;;;;;;;;;;;;;;21.04;50.73;100299.78;10327916;28;1000;-70
2023/07/17 23:15:08;;;;;;;;;;;;;;;21.04;50.72;100293.59;10328236;28;1878;-70
2023/07/17 23:20:10;;;;;;;;;;;;;;;21.05;50.67;100303.28;10327293;28;867;-70
2023/07/17 23:25:06;;;;;;;;;;;;;;;21.04;50.55;100304.19;10328413;28;873;-70
2023/07/17 23:30:02;;;;;;;;;;;;;;;21.02;50.74;100299.84;10327426;28;1091;-70
2023/07/17 23:34:58;;;;;;;;;;;;;;;21.02;50.68;100288.38;10328623;28;1968;-70
2023/07/17 23:39:59;;;;;;;;;;;;;;;21.00;50.72;100285.81;10327225;28;912;-70
2023/07/17 23:44:55;;;;;;;;;;;;;;;21.00;50.79;100298.19;10327778;28;871;-70
2023/07/17 23:49:51;;;;;;;;;;;;;;;20.99;50.70;100297.34;10327049;28;838;-70
2023/07/17 23:54:49;;;;;;;;;;;;;;;20.98;50.67;100292.97;10326900;28;1961;-70
2023/07/17 23:59:45;;;;;;;;;;;;;;;20.97;50.70;100288.59;10326692;28;999;-70
